createdAt,value
2018-10-11T00:01:14.759Z,6.60
2018-10-11T00:03:43.125Z,7.00
2018-10-11T00:06:11.508Z,7.07
2018-10-11T00:08:39.897Z,6.87
2018-10-11T00:11:08.343Z,7.40
2018-10-11T00:13:36.784Z,6.10
2018-10-11T00:16:05.105Z,7.20
2018-10-11T00:18:33.447Z,6.50
2018-10-11T00:21:01.801Z,6.70
2018-10-11T00:23:30.135Z,7.20
2018-10-11T00:25:58.561Z,6.63
2018-10-11T00:28:26.931Z,7.40
2018-10-11T00:30:55.263Z,7.17
2018-10-11T00:33:23.558Z,6.60
2018-10-11T00:35:51.960Z,6.23
2018-10-11T00:38:20.245Z,7.27
2018-10-11T00:40:48.622Z,7.17
2018-10-11T00:43:17.006Z,7.13
2018-10-11T00:45:45.364Z,7.40
2018-10-11T00:48:13.743Z,7.80
2018-10-11T00:50:42.223Z,8.20
2018-10-11T00:53:10.563Z,7.90
2018-10-11T00:55:38.978Z,7.77
2018-10-11T00:58:07.420Z,7.30
2018-10-11T01:00:35.770Z,6.93
2018-10-11T01:03:04.113Z,7.70
2018-10-11T01:05:32.531Z,8.00
2018-10-11T01:08:00.873Z,6.57
2018-10-11T01:10:29.302Z,8.07
2018-10-11T01:12:57.680Z,7.50
2018-10-11T01:15:26.034Z,6.93
2018-10-11T01:17:54.461Z,8.17
2018-10-11T01:20:22.783Z,8.20
2018-10-11T01:22:51.151Z,8.70
2018-10-11T01:25:19.545Z,8.50
2018-10-11T01:27:47.853Z,8.60
2018-10-11T01:30:16.266Z,7.83
2018-10-11T01:32:44.703Z,7.87
2018-10-11T01:35:13.137Z,8.40
2018-10-11T01:37:41.542Z,8.10
2018-10-11T01:40:09.583Z,7.60
2018-10-11T01:42:37.986Z,8.00
2018-10-11T01:45:07.149Z,8.10
2018-10-11T01:47:35.579Z,8.93
2018-10-11T01:50:04.102Z,8.50
2018-10-11T01:52:32.523Z,7.77
2018-10-11T01:55:00.922Z,9.07
2018-10-11T01:57:29.326Z,8.03
2018-10-11T01:59:57.686Z,7.70
2018-10-11T02:02:26.097Z,8.40
2018-10-11T02:04:54.447Z,8.50
2018-10-11T02:07:22.864Z,8.30
2018-10-11T02:09:51.321Z,8.93
2018-10-11T02:12:19.671Z,8.90
2018-10-11T02:14:48.119Z,9.00
2018-10-11T02:17:16.498Z,8.70
2018-10-11T02:19:44.903Z,9.13
2018-10-11T02:22:13.278Z,9.73
2018-10-11T02:24:41.665Z,7.93
2018-10-11T02:27:10.154Z,8.70
2018-10-11T02:29:38.805Z,7.80
2018-10-11T02:32:07.641Z,7.90
2018-10-11T02:34:35.874Z,8.13
2018-10-11T02:37:04.231Z,8.80
2018-10-11T02:39:32.609Z,8.87
2018-10-11T02:42:01.008Z,8.73
2018-10-11T02:44:29.558Z,7.10
2018-10-11T02:46:57.891Z,7.30
2018-10-11T02:49:26.222Z,7.30
2018-10-11T02:51:55.091Z,8.03
2018-10-11T02:54:23.373Z,7.90
2018-10-11T02:56:55.924Z,8.07
2018-10-11T02:59:37.708Z,7.90
2018-10-11T03:02:12.223Z,7.30
2018-10-11T03:04:40.554Z,8.60
2018-10-11T03:07:09.804Z,8.03
2018-10-11T03:09:38.168Z,7.63
2018-10-11T03:12:06.644Z,7.73
2018-10-11T03:14:34.985Z,7.30
2018-10-11T03:17:03.368Z,7.97
2018-10-11T03:19:31.692Z,8.00
2018-10-11T03:22:00.078Z,8.33
2018-10-11T03:24:28.592Z,7.37
2018-10-11T03:26:59.197Z,8.67
2018-10-11T03:29:29.215Z,8.70
2018-10-11T03:31:57.679Z,7.53
2018-10-11T03:34:26.998Z,9.10
2018-10-11T03:36:55.875Z,7.87
2018-10-11T03:39:24.455Z,7.53
2018-10-11T03:41:52.803Z,8.53
2018-10-11T03:44:21.210Z,8.33
2018-10-11T03:46:49.647Z,8.13
2018-10-11T03:49:18.027Z,8.60
2018-10-11T03:51:46.420Z,8.00
2018-10-11T03:54:14.796Z,8.27
2018-10-11T03:56:43.235Z,8.30
2018-10-11T03:59:11.681Z,7.50
2018-10-11T04:01:40.127Z,8.10
2018-10-11T04:04:08.613Z,8.83
2018-10-11T04:06:37.058Z,8.83
2018-10-11T04:09:06.910Z,8.33
2018-10-11T04:11:35.273Z,7.90
2018-10-11T04:14:03.768Z,8.47
2018-10-11T04:16:32.149Z,10.17
2018-10-11T04:19:00.473Z,9.90
2018-10-11T04:21:28.901Z,11.60
2018-10-11T04:23:57.275Z,11.40
2018-10-11T04:26:25.571Z,9.60
2018-10-11T04:28:53.919Z,9.57
2018-10-11T04:31:22.257Z,9.30
2018-10-11T04:33:50.653Z,16.23
2018-10-11T04:36:19.005Z,9.20
2018-10-11T04:38:47.378Z,8.67
2018-10-11T04:41:15.794Z,8.70
2018-10-11T04:43:44.231Z,9.50
2018-10-11T04:46:12.563Z,9.20
2018-10-11T04:48:40.888Z,9.00
2018-10-11T04:51:09.289Z,9.43
2018-10-11T04:53:37.789Z,9.27
2018-10-11T04:56:06.135Z,10.03
2018-10-11T04:58:34.535Z,10.60
2018-10-11T05:01:03.000Z,9.57
2018-10-11T05:03:31.355Z,9.00
2018-10-11T05:05:59.773Z,8.70
2018-10-11T05:08:28.121Z,8.57
2018-10-11T05:10:56.551Z,9.70
2018-10-11T05:13:43.456Z,9.87
2018-10-11T05:16:12.139Z,8.70
2018-10-11T05:18:41.679Z,8.27
2018-10-11T05:21:10.121Z,8.40
2018-10-11T05:23:38.537Z,9.50
2018-10-11T05:26:07.458Z,9.63
2018-10-11T05:28:35.829Z,8.07
2018-10-11T05:31:04.376Z,8.73
2018-10-11T05:33:32.907Z,9.50
2018-10-11T05:36:01.298Z,8.80
2018-10-11T05:38:29.791Z,10.17
2018-10-11T05:40:58.128Z,9.20
2018-10-11T05:43:27.319Z,8.40
2018-10-11T05:45:58.245Z,9.30
2018-10-11T05:48:28.684Z,9.87
2018-10-11T05:50:58.055Z,8.33
2018-10-11T05:53:26.585Z,12.60
2018-10-11T05:55:55.279Z,9.47
2018-10-11T05:58:23.969Z,9.50
2018-10-11T06:00:52.468Z,9.73
2018-10-11T06:03:20.937Z,9.67
2018-10-11T06:05:49.401Z,8.73
2018-10-11T06:08:17.831Z,13.70
2018-10-11T06:10:46.253Z,14.80
2018-10-11T06:13:14.808Z,12.17
2018-10-11T06:15:44.157Z,9.90
2018-10-11T06:18:13.053Z,11.00
2018-10-11T06:20:42.270Z,10.00
2018-10-11T06:23:10.709Z,10.20
2018-10-11T06:25:39.139Z,9.30
2018-10-11T06:28:08.606Z,8.20
2018-10-11T06:30:37.671Z,10.10
2018-10-11T06:33:06.173Z,9.23
2018-10-11T06:35:34.800Z,8.70
2018-10-11T06:38:03.727Z,8.07
2018-10-11T06:40:33.525Z,8.03
2018-10-11T06:43:01.949Z,9.23
2018-10-11T06:45:30.319Z,8.60
2018-10-11T06:48:01.388Z,7.50
2018-10-11T06:50:29.922Z,7.80
2018-10-11T06:52:58.384Z,8.07
2018-10-11T06:55:26.849Z,7.47
2018-10-11T06:57:55.144Z,7.50
2018-10-11T07:00:23.785Z,8.07
2018-10-11T07:02:52.191Z,8.67
2018-10-11T07:05:20.611Z,8.50
2018-10-11T07:07:48.929Z,7.53
2018-10-11T07:10:17.342Z,8.53
2018-10-11T07:12:45.721Z,7.63
2018-10-11T07:15:14.123Z,8.10
2018-10-11T07:17:42.485Z,8.20
2018-10-11T07:20:10.925Z,7.23
2018-10-11T07:22:39.314Z,7.33
2018-10-11T07:25:07.719Z,6.20
2018-10-11T07:27:36.076Z,5.80
2018-10-11T07:30:04.763Z,6.90
2018-10-11T07:32:33.252Z,5.90
2018-10-11T07:35:01.687Z,7.60
2018-10-11T07:37:30.014Z,6.50
2018-10-11T07:39:58.418Z,5.80
2018-10-11T07:42:26.763Z,5.93
2018-10-11T07:44:55.148Z,5.30
2018-10-11T07:47:23.549Z,5.80
2018-10-11T07:49:51.927Z,6.20
2018-10-11T07:52:20.257Z,6.10
2018-10-11T07:54:48.641Z,6.43
2018-10-11T07:57:16.967Z,5.53
2018-10-11T07:59:45.332Z,4.83
2018-10-11T08:02:13.639Z,4.53
2018-10-11T08:04:42.012Z,4.63
2018-10-11T08:07:10.493Z,4.67
2018-10-11T08:09:38.855Z,4.40
2018-10-11T08:12:07.742Z,4.57
2018-10-11T08:14:36.029Z,4.10
2018-10-11T08:17:04.571Z,4.23
2018-10-11T08:19:33.065Z,4.00
2018-10-11T08:22:01.273Z,4.77
2018-10-11T08:24:29.881Z,4.77
2018-10-11T08:26:58.255Z,4.07
2018-10-11T08:29:26.563Z,4.83
2018-10-11T08:31:54.919Z,4.27
2018-10-11T08:34:23.272Z,4.77
2018-10-11T08:36:51.610Z,4.17
2018-10-11T08:39:19.947Z,4.10
2018-10-11T08:41:48.311Z,4.27
2018-10-11T08:44:16.717Z,3.70
2018-10-11T08:46:45.106Z,4.63
2018-10-11T08:49:13.584Z,4.90
2018-10-11T08:51:41.866Z,4.10
2018-10-11T08:54:15.487Z,4.20
2018-10-11T08:56:43.820Z,4.40
2018-10-11T08:59:12.204Z,4.00
2018-10-11T09:01:40.506Z,4.30
2018-10-11T09:04:08.920Z,4.20
2018-10-11T09:06:37.192Z,4.17
2018-10-11T09:09:07.820Z,4.10
2018-10-11T09:11:36.211Z,4.00
2018-10-11T09:14:04.577Z,3.73
2018-10-11T09:16:33.207Z,3.90
2018-10-11T09:19:01.573Z,3.70
2018-10-11T09:21:30.269Z,3.73
2018-10-11T09:23:58.641Z,5.87
2018-10-11T09:26:27.095Z,4.03
2018-10-11T09:28:55.420Z,3.83
2018-10-11T09:31:23.795Z,3.90
2018-10-11T09:33:52.219Z,3.60
2018-10-11T09:36:20.671Z,3.83
2018-10-11T09:38:49.682Z,3.63
2018-10-11T09:41:18.010Z,3.57
2018-10-11T09:43:46.384Z,3.53
2018-10-11T09:46:14.847Z,3.23
2018-10-11T09:48:43.379Z,3.27
2018-10-11T09:51:12.335Z,3.33
2018-10-11T09:53:40.985Z,3.63
2018-10-11T09:56:09.369Z,3.17
2018-10-11T09:58:37.727Z,3.40
2018-10-11T10:01:11.467Z,3.67
2018-10-11T10:03:39.877Z,3.50
2018-10-11T10:06:08.237Z,3.70
2018-10-11T10:08:36.667Z,3.40
2018-10-11T10:11:05.051Z,3.67
2018-10-11T10:13:33.401Z,3.60
2018-10-11T10:16:01.710Z,3.13
2018-10-11T10:18:30.062Z,3.77
2018-10-11T10:20:58.418Z,3.87
2018-10-11T10:23:26.869Z,3.67
2018-10-11T10:25:55.263Z,3.40
2018-10-11T10:28:23.615Z,3.47
2018-10-11T10:30:53.307Z,3.20
2018-10-11T10:33:22.912Z,3.37
2018-10-11T10:35:51.329Z,3.20
2018-10-11T10:38:20.293Z,3.80
2018-10-11T10:40:48.579Z,3.40
2018-10-11T10:43:16.955Z,3.47
2018-10-11T10:45:45.296Z,3.67
2018-10-11T10:48:13.623Z,3.87
2018-10-11T10:50:41.941Z,4.00
2018-10-11T10:53:10.291Z,2.83
2018-10-11T10:55:38.644Z,3.60
2018-10-11T10:58:07.204Z,3.53
2018-10-11T11:00:35.611Z,3.20
2018-10-11T11:03:03.993Z,5.03
2018-10-11T11:05:32.330Z,3.17
2018-10-11T11:08:00.959Z,3.03
2018-10-11T11:10:29.305Z,3.30
2018-10-11T11:12:57.694Z,2.77
2018-10-11T11:15:26.045Z,3.00
2018-10-11T11:17:54.413Z,2.80
2018-10-11T11:20:22.792Z,2.67
2018-10-11T11:22:51.201Z,2.80
2018-10-11T11:25:19.663Z,8.73
2018-10-11T11:27:48.617Z,3.13
2018-10-11T11:30:16.991Z,3.13
2018-10-11T11:32:45.717Z,2.97
2018-10-11T11:35:14.019Z,2.80
2018-10-11T11:37:42.405Z,3.70
2018-10-11T11:40:10.865Z,2.70
2018-10-11T11:42:39.237Z,3.30
2018-10-11T11:45:08.118Z,2.67
2018-10-11T11:47:36.465Z,2.67
2018-10-11T11:50:04.846Z,3.07
2018-10-11T11:52:33.301Z,3.07
2018-10-11T11:55:01.653Z,2.80
2018-10-11T11:57:30.005Z,2.47
2018-10-11T11:59:58.307Z,2.70
2018-10-11T12:02:26.677Z,2.30
2018-10-11T12:04:55.105Z,2.43
2018-10-11T12:07:23.447Z,2.90
2018-10-11T12:09:51.831Z,3.00
2018-10-11T12:12:31.220Z,2.90
2018-10-11T12:14:59.591Z,2.63
2018-10-11T12:17:28.033Z,3.23
2018-10-11T12:19:56.336Z,3.03
2018-10-11T12:22:24.675Z,3.00
2018-10-11T12:24:53.034Z,2.50
2018-10-11T12:27:21.341Z,2.33
2018-10-11T12:29:49.690Z,2.50
2018-10-11T12:32:18.145Z,2.43
2018-10-11T12:34:46.478Z,2.60
2018-10-11T12:37:14.817Z,2.60
2018-10-11T12:39:43.218Z,2.77
2018-10-11T12:42:11.590Z,3.33
2018-10-11T12:44:39.918Z,2.63
2018-10-11T12:47:08.285Z,2.63
2018-10-11T12:49:41.643Z,3.07
2018-10-11T12:52:05.159Z,3.33
2018-10-11T12:54:33.425Z,3.80
2018-10-11T12:57:01.931Z,3.70
2018-10-11T12:59:30.263Z,3.83
2018-10-11T13:01:58.771Z,3.53
2018-10-11T13:04:27.157Z,4.37
2018-10-11T13:06:55.481Z,4.17
2018-10-11T13:09:23.914Z,4.03
2018-10-11T13:11:52.238Z,3.70
2018-10-11T13:14:20.581Z,4.00
2018-10-11T13:16:49.111Z,3.43
2018-10-11T13:19:19.855Z,3.10
2018-10-11T13:21:48.210Z,3.00
2018-10-11T13:24:16.559Z,3.53
2018-10-11T13:26:44.936Z,3.80
2018-10-11T13:29:13.274Z,3.03
2018-10-11T13:31:41.606Z,3.73
2018-10-11T13:34:10.404Z,4.17
2018-10-11T13:36:38.989Z,4.80
2018-10-11T13:39:08.183Z,3.67
2018-10-11T13:41:36.728Z,4.57
2018-10-11T13:44:04.901Z,4.20
2018-10-11T13:46:33.186Z,6.43
2018-10-11T13:49:01.506Z,5.03
2018-10-11T13:51:30.238Z,4.70
2018-10-11T13:53:58.858Z,5.13
2018-10-11T13:56:27.239Z,4.27
2018-10-11T13:58:55.845Z,5.00
2018-10-11T14:01:24.282Z,5.10
2018-10-11T14:03:52.612Z,4.90
2018-10-11T14:06:20.946Z,4.27
2018-10-11T14:08:49.305Z,4.73
2018-10-11T14:11:17.769Z,5.10
2018-10-11T14:13:46.127Z,4.90
2018-10-11T14:16:14.533Z,4.97
2018-10-11T14:18:42.919Z,5.33
2018-10-11T14:21:11.420Z,4.60
2018-10-11T14:23:40.044Z,5.67
2018-10-11T14:26:08.437Z,4.50
2018-10-11T14:28:36.814Z,5.40
2018-10-11T14:31:05.169Z,5.33
2018-10-11T14:33:33.537Z,4.70
2018-10-11T14:36:02.007Z,5.03
2018-10-11T14:38:30.437Z,4.70
2018-10-11T14:40:58.852Z,4.93
2018-10-11T14:43:27.336Z,5.07
2018-10-11T14:45:55.626Z,4.70
2018-10-11T14:48:24.074Z,4.40
2018-10-11T14:50:52.460Z,4.30
2018-10-11T14:53:20.790Z,5.23
2018-10-11T14:58:59.568Z,4.77
2018-10-11T15:01:28.037Z,5.37
2018-10-11T15:03:56.415Z,5.03
2018-10-11T15:06:24.905Z,4.63
2018-10-11T15:08:53.411Z,5.40
2018-10-11T15:11:21.952Z,5.20
2018-10-11T15:13:50.291Z,5.30
2018-10-11T15:16:18.727Z,5.03
2018-10-11T15:18:47.178Z,5.37
2018-10-11T15:21:15.635Z,5.17
2018-10-11T15:23:44.248Z,5.17
2018-10-11T15:26:12.684Z,4.90
2018-10-11T15:28:41.133Z,5.10
2018-10-11T15:31:09.440Z,5.43
2018-10-11T15:33:37.735Z,5.20
2018-10-11T15:36:06.317Z,5.50
2018-10-11T15:38:34.734Z,5.20
2018-10-11T15:41:03.677Z,5.23
2018-10-11T15:43:32.175Z,5.30
2018-10-11T15:46:03.398Z,5.67
2018-10-11T15:48:31.894Z,5.47
2018-10-11T15:51:00.690Z,5.40
2018-10-11T15:53:29.120Z,5.60
2018-10-11T15:55:57.606Z,5.50
2018-10-11T15:58:26.030Z,4.70
2018-10-11T16:00:54.384Z,5.27
2018-10-11T16:03:22.831Z,5.17
2018-10-11T16:05:51.238Z,5.70
2018-10-11T16:08:19.615Z,6.30
2018-10-11T16:10:48.052Z,6.27
2018-10-11T16:13:16.471Z,5.80
2018-10-11T16:15:44.877Z,7.70
2018-10-11T16:18:13.255Z,7.13
2018-10-11T16:20:41.665Z,6.50
2018-10-11T16:23:09.936Z,6.53
2018-10-11T16:25:38.303Z,6.13
2018-10-11T16:28:06.661Z,6.03
2018-10-11T16:30:35.041Z,5.60
2018-10-11T16:33:03.444Z,6.80
2018-10-11T16:35:31.857Z,5.60
2018-10-11T16:38:00.248Z,6.10
2018-10-11T16:40:28.744Z,6.63
2018-10-11T16:42:57.102Z,6.07
2018-10-11T16:45:25.493Z,6.30
2018-10-11T16:47:53.859Z,6.60
2018-10-11T16:50:22.442Z,6.07
2018-10-11T16:52:50.953Z,7.30
2018-10-11T16:55:19.398Z,6.30
2018-10-11T16:57:47.753Z,6.47
2018-10-11T17:00:16.159Z,6.93
2018-10-11T17:02:44.757Z,6.80
2018-10-11T17:05:13.161Z,7.03
2018-10-11T17:07:41.703Z,6.10
2018-10-11T17:10:10.028Z,7.60
2018-10-11T17:12:38.542Z,6.90
2018-10-11T17:15:07.253Z,7.63
2018-10-11T17:17:35.669Z,6.90
2018-10-11T17:20:05.086Z,7.13
2018-10-11T17:22:33.492Z,7.20
2018-10-11T17:25:02.480Z,7.77
2018-10-11T17:27:31.002Z,7.60
2018-10-11T17:29:59.460Z,7.17
2018-10-11T17:32:28.167Z,7.20
2018-10-11T17:34:56.779Z,7.10
2018-10-11T17:37:25.199Z,7.00
2018-10-11T17:39:53.571Z,7.80
2018-10-11T17:42:21.923Z,7.73
2018-10-11T17:44:50.362Z,7.90
2018-10-11T17:47:19.706Z,7.60
2018-10-11T17:49:48.088Z,7.90
2018-10-11T17:52:16.445Z,8.20
2018-10-11T17:54:50.267Z,8.23
2018-10-11T17:57:18.717Z,8.27
2018-10-11T17:59:47.565Z,9.90
2018-10-11T18:02:16.526Z,8.37
2018-10-11T18:04:44.810Z,10.03
2018-10-11T18:07:13.615Z,9.30
2018-10-11T18:09:42.112Z,9.17
2018-10-11T18:12:10.649Z,9.37
2018-10-11T18:14:39.085Z,8.50
2018-10-11T18:17:07.669Z,9.80
2018-10-11T18:19:36.010Z,9.10
2018-10-11T18:22:04.473Z,10.40
2018-10-11T18:24:32.813Z,9.30
2018-10-11T18:27:01.352Z,9.83
2018-10-11T18:29:29.688Z,9.80
2018-10-11T18:31:58.075Z,10.40
2018-10-11T18:34:27.087Z,10.13
2018-10-11T18:36:55.441Z,10.00
2018-10-11T18:39:23.890Z,10.00
2018-10-11T18:41:52.233Z,10.40
2018-10-11T18:44:20.645Z,10.30
2018-10-11T18:46:48.951Z,9.80
2018-10-11T18:49:17.325Z,11.40
2018-10-11T18:51:45.855Z,12.23
2018-10-11T18:54:14.324Z,11.80
2018-10-11T18:56:42.692Z,11.77
2018-10-11T18:59:11.858Z,11.80
2018-10-11T19:01:40.271Z,11.90
2018-10-11T19:04:08.743Z,11.37
2018-10-11T19:06:37.221Z,11.10
2018-10-11T19:09:06.986Z,11.53
2018-10-11T19:11:35.430Z,10.67
2018-10-11T19:14:04.480Z,10.20
2018-10-11T19:16:32.906Z,11.50
2018-10-11T19:19:01.305Z,11.50
2018-10-11T19:21:29.815Z,11.80
2018-10-11T19:23:58.151Z,12.03
2018-10-11T19:26:26.597Z,10.53
2018-10-11T19:28:54.971Z,11.50
2018-10-11T19:31:23.329Z,10.80
2018-10-11T19:33:51.700Z,13.10
2018-10-11T19:36:20.052Z,11.53
2018-10-11T19:38:48.603Z,11.37
2018-10-11T19:41:17.109Z,11.47
2018-10-11T19:43:45.507Z,12.67
2018-10-11T19:46:14.127Z,12.10
2018-10-11T19:48:42.576Z,11.47
2018-10-11T19:51:10.935Z,13.03
2018-10-11T19:53:39.365Z,12.20
2018-10-11T19:56:07.826Z,11.70
2018-10-11T19:58:36.775Z,12.53
2018-10-11T20:01:05.560Z,11.57
2018-10-11T20:03:33.938Z,10.93
2018-10-11T20:06:02.410Z,11.67
2018-10-11T20:08:30.889Z,11.90
2018-10-11T20:10:59.237Z,11.33
2018-10-11T20:13:27.626Z,10.47
2018-10-11T20:15:55.999Z,11.40
2018-10-11T20:18:24.493Z,10.90
2018-10-11T20:20:53.424Z,12.00
2018-10-11T20:23:21.924Z,11.60
2018-10-11T20:25:50.949Z,12.07
2018-10-11T20:28:19.473Z,14.20
2018-10-11T20:30:48.666Z,13.73
2018-10-11T20:33:19.651Z,13.97
2018-10-11T20:35:48.653Z,12.90
2018-10-11T20:38:18.384Z,12.90
2018-10-11T20:40:47.131Z,13.90
2018-10-11T20:43:15.750Z,14.27
2018-10-11T20:45:44.104Z,13.63
2018-10-11T20:48:12.495Z,14.80
2018-10-11T20:50:40.915Z,13.97
2018-10-11T20:53:09.338Z,13.27
2018-10-11T20:55:37.659Z,13.97
2018-10-11T20:58:06.026Z,13.53
2018-10-11T21:00:34.344Z,14.20
2018-10-11T21:03:02.897Z,13.00
2018-10-11T21:05:31.257Z,13.93
2018-10-11T21:07:59.837Z,12.23
2018-10-11T21:10:28.191Z,13.37
2018-10-11T21:12:56.605Z,13.30
2018-10-11T21:15:25.027Z,13.47
2018-10-11T21:17:53.381Z,12.33
2018-10-11T21:20:21.838Z,11.90
2018-10-11T21:22:50.172Z,12.03
2018-10-11T21:25:18.882Z,11.63
2018-10-11T21:27:47.321Z,12.23
2018-10-11T21:30:15.796Z,12.00
2018-10-11T21:32:44.189Z,10.17
2018-10-11T21:35:12.537Z,11.10
2018-10-11T21:37:40.985Z,11.03
2018-10-11T21:40:09.529Z,11.10
2018-10-11T21:42:37.975Z,10.60
2018-10-11T21:45:06.405Z,10.97
2018-10-11T21:47:34.788Z,11.10
2018-10-11T21:50:03.361Z,10.63
2018-10-11T21:52:32.188Z,12.40
2018-10-11T21:55:00.661Z,11.13
2018-10-11T21:57:29.133Z,10.87
2018-10-11T21:59:57.950Z,9.60
2018-10-11T22:02:26.507Z,10.80
2018-10-11T22:04:55.171Z,10.73
2018-10-11T22:07:23.574Z,10.93
2018-10-11T22:09:51.965Z,11.03
2018-10-11T22:12:20.592Z,10.70
2018-10-11T22:14:49.174Z,10.33
2018-10-11T22:17:17.526Z,10.60
2018-10-11T22:19:45.947Z,10.43
2018-10-11T22:22:14.512Z,11.17
2018-10-11T22:24:42.891Z,10.23
2018-10-11T22:27:11.347Z,10.47
2018-10-11T22:29:39.740Z,11.30
2018-10-11T22:32:08.250Z,11.63
2018-10-11T22:34:36.705Z,11.20
2018-10-11T22:37:05.211Z,11.57
2018-10-11T22:39:33.541Z,11.13
2018-10-11T22:42:01.836Z,10.87
2018-10-11T22:44:30.592Z,10.50
2018-10-11T22:46:58.943Z,10.17
2018-10-11T22:49:27.319Z,9.50
2018-10-11T22:51:55.751Z,10.20
2018-10-11T22:54:24.194Z,10.40
2018-10-11T22:56:52.678Z,9.57
2018-10-11T22:59:21.172Z,8.70
2018-10-11T23:01:49.599Z,9.43
2018-10-11T23:04:18.013Z,9.33
2018-10-11T23:06:46.452Z,9.20
2018-10-11T23:09:14.871Z,8.53
2018-10-11T23:11:43.285Z,8.70
2018-10-11T23:14:11.651Z,8.90
2018-10-11T23:16:39.995Z,9.67
2018-10-11T23:19:08.591Z,9.13
2018-10-11T23:21:36.901Z,9.03
2018-10-11T23:24:05.265Z,9.00
2018-10-11T23:26:33.679Z,8.20
2018-10-11T23:29:02.024Z,8.17
2018-10-11T23:31:30.406Z,8.30
2018-10-11T23:33:58.776Z,9.37
2018-10-11T23:36:27.135Z,8.27
2018-10-11T23:38:55.497Z,9.57
2018-10-11T23:41:23.901Z,7.97
2018-10-11T23:43:52.371Z,7.70
2018-10-11T23:46:20.745Z,9.00
2018-10-11T23:48:49.180Z,8.17
2018-10-11T23:51:17.555Z,8.47
2018-10-11T23:53:45.902Z,8.20
2018-10-11T23:56:14.335Z,8.13
2018-10-11T23:58:42.689Z,8.00
